createdAt,value
2022-08-03T00:02:25.356Z,1.85
2022-08-03T00:07:27.797Z,2.30
2022-08-03T00:12:30.230Z,2.65
2022-08-03T00:17:52.665Z,2.33
2022-08-03T00:22:56.358Z,2.10
2022-08-03T00:27:58.889Z,1.92
2022-08-03T00:33:03.123Z,2.22
2022-08-03T00:38:06.373Z,1.95
2022-08-03T00:43:09.418Z,2.08
2022-08-03T00:48:29.465Z,2.22
2022-08-03T00:53:37.117Z,1.88
2022-08-03T00:58:39.652Z,1.92
2022-08-03T01:03:43.944Z,2.00
2022-08-03T01:08:52.614Z,2.30
2022-08-03T01:14:18.921Z,2.05
2022-08-03T01:19:42.829Z,2.20
2022-08-03T01:24:57.377Z,2.22
2022-08-03T01:30:05.815Z,1.98
2022-08-03T01:35:12.337Z,2.00
2022-08-03T01:40:17.048Z,2.42
2022-08-03T01:45:23.313Z,2.05
2022-08-03T01:50:28.945Z,2.28
2022-08-03T01:55:33.914Z,2.35
2022-08-03T02:00:39.473Z,2.08
2022-08-03T02:05:43.261Z,1.95
2022-08-03T02:10:47.006Z,2.30
2022-08-03T02:15:52.886Z,2.30
2022-08-03T02:20:56.641Z,2.13
2022-08-03T02:26:03.607Z,1.80
2022-08-03T02:31:12.919Z,2.17
2022-08-03T02:36:17.115Z,2.50
2022-08-03T02:41:24.979Z,2.60
2022-08-03T02:46:32.991Z,2.22
2022-08-03T02:51:38.551Z,2.22
2022-08-03T02:56:42.817Z,2.28
2022-08-03T03:06:51.569Z,2.08
2022-08-03T03:11:55.967Z,2.17
2022-08-03T03:17:00.710Z,2.30
2022-08-03T03:22:06.824Z,2.40
2022-08-03T03:27:09.791Z,2.20
2022-08-03T03:32:14.761Z,2.20
2022-08-03T03:37:17.421Z,2.58
2022-08-03T03:42:20.193Z,2.50
2022-08-03T03:47:32.294Z,2.40
2022-08-03T03:52:35.695Z,2.40
2022-08-03T03:57:38.204Z,2.35
2022-08-03T04:02:42.269Z,2.30
2022-08-03T04:08:09.117Z,2.42
2022-08-03T04:13:13.254Z,2.63
2022-08-03T04:18:19.671Z,2.55
2022-08-03T04:23:26.340Z,2.40
2022-08-03T04:28:31.851Z,2.22
2022-08-03T04:33:39.546Z,2.60
2022-08-03T04:38:53.929Z,2.70
2022-08-03T04:49:02.604Z,2.50
2022-08-03T04:54:07.169Z,2.55
2022-08-03T04:59:10.744Z,2.45
2022-08-03T05:04:14.837Z,2.75
2022-08-03T05:09:46.109Z,2.42
2022-08-03T05:14:40.114Z,2.38
2022-08-03T05:19:43.964Z,3.05
2022-08-03T05:24:46.419Z,3.10
2022-08-03T05:29:50.958Z,2.20
2022-08-03T05:34:54.761Z,2.80
2022-08-03T05:39:57.262Z,2.63
2022-08-03T05:44:59.752Z,2.70
2022-08-03T05:50:03.712Z,1.75
2022-08-03T06:00:11.967Z,2.10
2022-08-03T06:05:16.724Z,2.10
2022-08-03T06:15:41.503Z,2.40
2022-08-03T06:20:45.384Z,3.22
2022-08-03T06:25:50.393Z,2.50
2022-08-03T06:30:52.912Z,2.30
2022-08-03T06:35:56.727Z,2.00
2022-08-03T06:40:59.245Z,2.40
2022-08-03T06:46:01.719Z,2.20
2022-08-03T06:51:05.690Z,2.00
2022-08-03T06:56:09.469Z,1.98
2022-08-03T07:01:12.013Z,2.53
2022-08-03T07:06:15.897Z,2.17
2022-08-03T07:16:21.046Z,2.08
2022-08-03T07:21:25.126Z,2.10
2022-08-03T07:26:27.640Z,2.25
2022-08-03T07:31:34.471Z,2.75
2022-08-03T07:36:38.491Z,2.10
2022-08-03T07:41:41.874Z,2.28
2022-08-03T07:46:44.482Z,1.95
2022-08-03T07:52:09.058Z,1.88
2022-08-03T07:57:11.701Z,2.20
2022-08-03T08:02:14.725Z,2.10
2022-08-03T08:07:18.772Z,3.03
2022-08-03T08:12:23.436Z,1.83
2022-08-03T08:17:25.985Z,1.90
2022-08-03T08:22:31.424Z,2.25
2022-08-03T08:28:22.276Z,1.63
2022-08-03T08:32:57.649Z,1.83
2022-08-03T08:43:08.691Z,1.90
2022-08-03T08:48:12.246Z,2.90
2022-08-03T08:58:24.220Z,2.65
2022-08-03T09:03:30.916Z,2.00
2022-08-03T09:08:34.983Z,1.90
2022-08-03T09:13:37.667Z,1.73
2022-08-03T09:18:41.523Z,1.95
2022-08-03T09:24:02.256Z,1.80
2022-08-03T09:29:13.479Z,2.17
2022-08-03T09:34:18.686Z,2.10
2022-08-03T09:39:41.540Z,1.77
2022-08-03T09:44:46.746Z,1.95
2022-08-03T09:50:01.780Z,1.30
2022-08-03T09:55:23.697Z,2.00
2022-08-03T10:00:32.742Z,1.90
2022-08-03T10:05:35.266Z,1.70
2022-08-03T10:10:45.740Z,1.83
2022-08-03T10:16:24.017Z,1.95
2022-08-03T10:21:16.983Z,2.10
2022-08-03T10:26:23.547Z,1.60
2022-08-03T10:31:27.296Z,1.70
2022-08-03T10:36:34.294Z,2.10
2022-08-03T10:41:42.457Z,1.95
2022-08-03T10:46:46.363Z,1.67
2022-08-03T10:51:52.929Z,2.08
2022-08-03T10:57:30.437Z,1.85
2022-08-03T11:03:07.287Z,1.85
2022-08-03T11:08:30.197Z,1.77
2022-08-03T11:13:34.428Z,1.88
2022-08-03T11:18:36.990Z,1.80
2022-08-03T11:24:03.321Z,1.70
2022-08-03T11:29:31.204Z,1.40
2022-08-03T11:34:33.715Z,2.03
2022-08-03T11:39:40.386Z,2.50
2022-08-03T11:44:47.481Z,1.80
2022-08-03T11:49:51.337Z,1.92
2022-08-03T11:54:57.213Z,2.20
2022-08-03T12:00:01.394Z,2.03
2022-08-03T12:05:04.204Z,2.03
2022-08-03T12:10:08.450Z,2.30
2022-08-03T12:15:12.706Z,1.80
2022-08-03T12:20:34.689Z,1.90
2022-08-03T12:25:40.046Z,1.92
2022-08-03T12:30:44.645Z,2.22
2022-08-03T12:35:52.451Z,2.00
2022-08-03T12:40:58.032Z,2.05
2022-08-03T12:46:13.620Z,1.70
2022-08-03T12:51:16.069Z,1.88
2022-08-03T12:56:19.934Z,1.98
2022-08-03T13:01:24.540Z,1.80
2022-08-03T13:06:28.628Z,1.70
2022-08-03T13:11:55.364Z,1.88
2022-08-03T13:16:54.897Z,1.75
2022-08-03T13:22:03.554Z,1.75
2022-08-03T13:28:01.492Z,1.50
2022-08-03T13:32:31.333Z,1.63
2022-08-03T13:37:34.704Z,1.98
2022-08-03T13:42:38.962Z,1.90
2022-08-03T13:47:42.911Z,1.80
2022-08-03T13:52:46.258Z,1.88
2022-08-03T13:58:04.378Z,1.75
2022-08-03T14:03:14.663Z,1.90
2022-08-03T14:08:18.209Z,1.70
2022-08-03T14:13:20.996Z,1.80
2022-08-03T14:18:29.291Z,1.80
2022-08-03T14:23:38.437Z,1.65
2022-08-03T14:28:41.761Z,1.80
2022-08-03T14:33:45.798Z,1.48
2022-08-03T14:38:48.285Z,1.63
2022-08-03T14:44:01.732Z,1.83
2022-08-03T14:50:37.685Z,1.52
2022-08-03T14:54:30.872Z,1.80
2022-08-03T14:59:55.951Z,1.60
2022-08-03T15:04:57.653Z,1.50
2022-08-03T15:10:00.476Z,1.80
2022-08-03T15:15:05.454Z,1.70
2022-08-03T15:20:25.451Z,1.80
2022-08-03T15:26:06.549Z,1.90
2022-08-03T15:30:56.729Z,1.88
2022-08-03T15:36:01.004Z,1.60
2022-08-03T15:41:03.572Z,1.70
2022-08-03T15:46:28.849Z,1.65
2022-08-03T15:51:30.520Z,1.80
2022-08-03T15:56:33.080Z,1.77
2022-08-03T16:06:39.429Z,1.90
2022-08-03T16:11:41.895Z,2.00
2022-08-03T16:21:50.068Z,1.90
2022-08-03T16:26:52.838Z,1.75
2022-08-03T16:31:55.348Z,1.65
2022-08-03T16:37:04.827Z,1.98
2022-08-03T16:42:14.372Z,1.70
2022-08-03T16:47:22.247Z,1.80
2022-08-03T16:52:26.763Z,1.65
2022-08-03T16:57:56.351Z,1.67
2022-08-03T17:02:52.880Z,1.90
2022-08-03T17:07:56.970Z,1.80
2022-08-03T17:12:59.429Z,1.95
2022-08-03T17:18:05.634Z,1.85
2022-08-03T17:23:34.711Z,2.08
2022-08-03T17:28:52.182Z,1.85
2022-08-03T17:34:04.517Z,1.90
2022-08-03T17:39:15.408Z,1.60
2022-08-03T17:44:31.117Z,1.58
2022-08-03T17:49:39.806Z,2.33
2022-08-03T18:00:42.627Z,2.78
2022-08-03T18:06:11.195Z,2.20
2022-08-03T18:11:15.213Z,2.22
2022-08-03T18:16:23.345Z,2.20
2022-08-03T18:21:26.010Z,1.70
2022-08-03T18:26:31.123Z,2.25
2022-08-03T18:32:05.334Z,1.90
2022-08-03T18:37:00.690Z,2.33
2022-08-03T18:42:08.667Z,2.85
2022-08-03T18:47:50.473Z,2.15
2022-08-03T18:53:03.064Z,2.83
2022-08-03T18:58:17.756Z,2.00
2022-08-03T19:03:24.847Z,2.40
2022-08-03T19:08:48.798Z,2.33
2022-08-03T19:13:57.260Z,2.05
2022-08-03T19:19:01.919Z,2.30
2022-08-03T19:24:09.653Z,2.10
2022-08-03T19:29:16.551Z,2.38
2022-08-03T19:34:19.524Z,2.53
2022-08-03T19:39:22.048Z,2.45
2022-08-03T19:44:32.438Z,2.78
2022-08-03T19:50:05.977Z,2.63
2022-08-03T19:55:04.356Z,2.78
2022-08-03T20:00:12.767Z,3.40
2022-08-03T20:05:16.849Z,3.97
2022-08-03T20:10:20.989Z,3.85
2022-08-03T20:15:31.443Z,3.72
2022-08-03T20:20:37.179Z,4.28
2022-08-03T20:31:06.006Z,3.90
2022-08-03T20:36:11.257Z,3.60
2022-08-03T20:41:14.446Z,3.45
2022-08-03T20:46:31.756Z,3.83
2022-08-03T20:51:50.316Z,2.80
2022-08-03T20:56:56.407Z,2.63
2022-08-03T21:02:00.419Z,2.90
2022-08-03T21:07:16.445Z,2.92
2022-08-03T21:12:26.848Z,3.28
2022-08-03T21:12:55.768Z,2.47
2022-08-03T21:13:14.055Z,4.20
2022-08-03T21:17:40.990Z,3.00
2022-08-03T21:22:46.965Z,2.90
2022-08-03T21:27:52.041Z,2.80
2022-08-03T21:32:57.882Z,2.78
2022-08-03T21:38:17.789Z,2.97
2022-08-03T21:43:20.639Z,3.35
2022-08-03T21:48:27.102Z,2.60
2022-08-03T21:54:00.363Z,2.60
2022-08-03T21:58:56.135Z,3.53
2022-08-03T22:04:00.378Z,2.45
2022-08-03T22:09:06.777Z,2.83
2022-08-03T22:14:09.817Z,2.65
2022-08-03T22:19:13.676Z,2.60
2022-08-03T22:29:20.031Z,2.55
2022-08-03T22:34:26.408Z,2.90
2022-08-03T22:39:30.452Z,2.92
2022-08-03T22:44:33.373Z,2.95
2022-08-03T22:49:37.979Z,2.83
2022-08-03T22:54:41.650Z,2.78
2022-08-03T22:59:47.246Z,3.15
2022-08-03T23:04:53.798Z,2.70
2022-08-03T23:09:58.053Z,3.00
2022-08-03T23:15:02.928Z,2.70
2022-08-03T23:20:09.092Z,2.78
2022-08-03T23:25:12.270Z,2.75
2022-08-03T23:30:14.979Z,3.07
2022-08-03T23:36:28.144Z,2.88
2022-08-03T23:41:01.829Z,3.08
2022-08-03T23:46:05.895Z,3.40
2022-08-03T23:51:14.144Z,3.20
2022-08-03T23:56:24.871Z,2.47
